Time;durP1;ratioP1;P1;durP2;ratioP2;P2;SDS_P1;SDS_P2;PMS_P1;PMS_P2;Temp;Humidity;BMP_temperature;BMP_pressure;BME280_temperature;BME280_humidity;BME280_pressure;Samples;Min_cycle;Max_cycle;Signal;HPM_P1;HPM_P2
2021/12/18 00:01:51;;;;;;;9.80;9.50;;;3.90;99.90;;;;;;5099918;28;20260;-81
2021/12/18 00:04:19;;;;;;;9.80;9.50;;;3.80;99.90;;;;;;5098675;28;20236;-82
2021/12/18 00:06:48;;;;;;;10.00;9.70;;;3.80;99.90;;;;;;5099237;28;20255;-81
2021/12/18 00:09:17;;;;;;;10.00;9.70;;;3.70;99.90;;;;;;5100280;28;20230;-81
2021/12/18 00:11:45;;;;;;;9.83;9.53;;;3.70;99.90;;;;;;5099301;28;20229;-82
2021/12/18 00:14:13;;;;;;;9.93;9.63;;;3.70;99.90;;;;;;5098602;28;20226;-82
2021/12/18 00:16:41;;;;;;;10.10;9.80;;;3.70;99.90;;;;;;5098636;28;20730;-82
2021/12/18 00:19:08;;;;;;;9.90;9.60;;;3.80;99.90;;;;;;5099248;28;20226;-81
2021/12/18 00:21:37;;;;;;;10.07;9.77;;;3.80;99.90;;;;;;5099108;28;20236;-81
2021/12/18 00:24:08;;;;;;;9.90;9.60;;;3.80;99.90;;;;;;5098571;28;20294;-82
2021/12/18 00:26:36;;;;;;;9.93;9.63;;;3.70;99.90;;;;;;5098781;28;20233;-81
2021/12/18 00:29:04;;;;;;;9.70;9.40;;;3.80;99.90;;;;;;5098845;28;20256;-82
2021/12/18 00:31:32;;;;;;;9.90;9.60;;;3.70;99.90;;;;;;5098550;28;20229;-81
2021/12/18 00:34:00;;;;;;;9.67;9.37;;;3.70;99.90;;;;;;5098199;28;20229;-82
2021/12/18 00:36:28;;;;;;;9.57;9.27;;;3.80;99.90;;;;;;5098632;28;20233;-82
2021/12/18 00:38:55;;;;;;;9.63;9.33;;;3.90;99.90;;;;;;5097851;28;20232;-82
2021/12/18 00:41:37;;;;;;;9.80;9.50;;;3.90;99.90;;;;;;5098809;28;20225;-81
2021/12/18 00:44:05;;;;;;;9.33;9.03;;;4.00;99.90;;;;;;5098508;28;20237;-83
2021/12/18 00:46:37;;;;;;;9.40;9.10;;;4.00;99.90;;;;;;5097227;28;20233;-81
2021/12/18 00:49:07;;;;;;;9.33;9.03;;;4.10;99.90;;;;;;5098397;28;20225;-82
2021/12/18 00:51:35;;;;;;;9.60;9.30;;;4.20;99.90;;;;;;5097977;28;20225;-82
2021/12/18 00:54:03;;;;;;;9.30;9.00;;;4.20;99.90;;;;;;5097851;28;20291;-82
2021/12/18 00:56:33;;;;;;;9.40;9.10;;;4.30;99.90;;;;;;5097188;28;20244;-83
2021/12/18 00:59:01;;;;;;;9.50;9.20;;;4.30;99.90;;;;;;5097924;28;20229;-82
2021/12/18 01:01:31;;;;;;;9.43;9.13;;;4.30;99.90;;;;;;5097429;28;20236;-82
2021/12/18 01:04:00;;;;;;;9.33;9.03;;;4.30;99.90;;;;;;5097433;28;20235;-82
2021/12/18 01:06:30;;;;;;;9.07;8.80;;;4.30;99.90;;;;;;5096984;28;20229;-83
2021/12/18 01:08:58;;;;;;;9.17;8.87;;;4.40;99.90;;;;;;5098813;28;20229;-82
2021/12/18 01:11:35;;;;;;;9.10;8.80;;;4.40;99.90;;;;;;5097697;28;20240;-82
2021/12/18 01:14:28;;;;;;;9.37;9.07;;;4.30;99.90;;;;;;5097831;28;20225;-83
2021/12/18 01:22:41;;;;;;;9.30;9.00;;;4.30;99.90;;;;;;5096727;28;20243;-82
2021/12/18 01:22:47;;;;;;;9.10;8.80;;;4.30;99.90;;;;;;5097539;28;20229;-82
2021/12/18 01:25:16;;;;;;;9.27;8.97;;;4.30;99.90;;;;;;5090680;28;20233;-82
2021/12/18 01:27:44;;;;;;;9.33;9.03;;;4.30;99.90;;;;;;5101382;28;20229;-82
2021/12/18 01:30:15;;;;;;;9.47;9.17;;;4.40;99.90;;;;;;5097966;28;20256;-82
2021/12/18 01:32:43;;;;;;;9.23;8.93;;;4.40;99.90;;;;;;5097907;28;20320;-82
2021/12/18 01:35:11;;;;;;;9.13;8.83;;;4.40;99.90;;;;;;5102393;28;20222;-82
2021/12/18 01:37:41;;;;;;;9.20;8.90;;;4.40;99.90;;;;;;5099837;28;20272;-82
2021/12/18 01:40:13;;;;;;;8.93;8.73;;;4.40;99.90;;;;;;5100994;28;20240;-82
2021/12/18 01:45:42;;;;;;;9.00;8.80;;;4.50;99.90;;;;;;5078680;28;20225;-82
2021/12/18 01:53:57;;;;;;;9.13;8.83;;;4.50;99.90;;;;;;5064376;28;20229;-81
2021/12/18 01:56:27;;;;;;;8.90;8.70;;;4.50;99.90;;;;;;5059843;28;20269;-82
2021/12/18 01:58:57;;;;;;;8.80;8.60;;;4.50;99.90;;;;;;5079268;28;20302;-82
2021/12/18 02:01:27;;;;;;;8.80;8.60;;;4.50;99.90;;;;;;5102497;28;20233;-82
2021/12/18 02:03:55;;;;;;;8.80;8.60;;;4.40;99.90;;;;;;5104598;28;20233;-83
2021/12/18 02:06:24;;;;;;;9.40;9.10;;;4.20;99.90;;;;;;5102664;28;20226;-82
2021/12/18 02:08:52;;;;;;;9.37;9.07;;;4.10;99.90;;;;;;5102701;28;20229;-82
2021/12/18 02:11:28;;;;;;;9.30;9.00;;;4.10;99.90;;;;;;5101716;28;20260;-82
2021/12/18 02:19:51;;;;;;;9.30;9.00;;;3.90;99.90;;;;;;5103780;28;20225;-81
2021/12/18 02:22:25;;;;;;;9.60;9.30;;;3.90;99.90;;;;;;5105603;28;20233;-82
2021/12/18 02:24:56;;;;;;;9.60;9.30;;;3.70;99.90;;;;;;5117825;28;20259;-82
2021/12/18 02:27:23;;;;;;;9.53;9.23;;;3.60;99.90;;;;;;5119825;28;20241;-82
2021/12/18 02:29:52;;;;;;;9.60;9.30;;;3.60;99.90;;;;;;5116731;28;20337;-81
2021/12/18 02:32:21;;;;;;;9.60;9.30;;;3.70;99.90;;;;;;5102239;28;20225;-82
2021/12/18 02:34:56;;;;;;;9.53;9.23;;;3.70;99.90;;;;;;5100872;28;20316;-82
2021/12/18 02:37:29;;;;;;;9.50;9.20;;;3.80;99.90;;;;;;5101132;28;20265;-82
2021/12/18 02:40:49;;;;;;;9.30;9.00;;;3.80;99.90;;;;;;5101062;28;20233;-83
2021/12/18 02:42:51;;;;;;;9.50;9.20;;;3.90;99.90;;;;;;5100539;28;20225;-82
2021/12/18 02:45:21;;;;;;;9.30;9.00;;;3.90;99.90;;;;;;5100054;28;20268;-82
2021/12/18 02:47:49;;;;;;;9.20;8.90;;;4.00;99.90;;;;;;5104506;28;20289;-82
2021/12/18 02:50:17;;;;;;;9.43;9.13;;;4.10;99.90;;;;;;5104717;28;20233;-82
2021/12/18 02:52:46;;;;;;;9.40;9.10;;;4.10;99.90;;;;;;5102040;28;20240;-81
2021/12/18 02:55:14;;;;;;;9.70;9.40;;;4.10;99.90;;;;;;5100544;28;20237;-82
2021/12/18 02:57:42;;;;;;;9.40;9.10;;;4.10;99.90;;;;;;5101396;28;20240;-82
2021/12/18 03:00:12;;;;;;;9.30;9.00;;;4.10;99.90;;;;;;5100541;28;20225;-82
2021/12/18 03:02:43;;;;;;;9.57;9.27;;;4.10;99.90;;;;;;5100307;28;20271;-82
2021/12/18 03:05:18;;;;;;;9.40;9.10;;;4.00;99.90;;;;;;5099712;28;20232;-82
2021/12/18 03:07:52;;;;;;;9.40;9.10;;;4.10;99.90;;;;;;5100948;28;20229;-82
2021/12/18 03:22:09;;;;;;;9.53;9.23;;;4.10;99.90;;;;;;5100982;28;20247;-82
2021/12/18 03:24:30;;;;;;;9.33;9.03;;;4.10;99.90;;;;;;5099573;28;20229;-82
2021/12/18 03:26:58;;;;;;;9.50;9.20;;;4.10;99.90;;;;;;5099521;28;20255;-82
2021/12/18 03:29:26;;;;;;;9.40;9.10;;;4.10;99.90;;;;;;5099783;28;20251;-81
2021/12/18 03:31:53;;;;;;;9.60;9.30;;;4.10;99.90;;;;;;5099671;28;20252;-82
2021/12/18 03:34:21;;;;;;;9.60;9.30;;;4.10;99.90;;;;;;5098364;28;20291;-82
2021/12/18 03:36:51;;;;;;;9.47;9.17;;;4.00;99.90;;;;;;5099932;28;20256;-82
2021/12/18 03:39:18;;;;;;;9.67;9.37;;;4.00;99.90;;;;;;5099646;28;20226;-82
2021/12/18 03:41:47;;;;;;;9.70;9.40;;;4.00;99.90;;;;;;5099689;28;20264;-82
2021/12/18 03:44:15;;;;;;;9.80;9.50;;;4.10;99.90;;;;;;5099043;28;20229;-82
2021/12/18 03:46:43;;;;;;;9.40;9.10;;;4.00;99.90;;;;;;5099367;28;20238;-83
2021/12/18 03:49:11;;;;;;;9.17;8.87;;;4.00;99.90;;;;;;5104739;28;20224;-82
2021/12/18 03:51:38;;;;;;;9.37;9.07;;;4.10;99.90;;;;;;5099901;28;20233;-82
2021/12/18 03:54:07;;;;;;;8.80;8.60;;;4.10;99.90;;;;;;5099265;28;20226;-82
2021/12/18 03:56:34;;;;;;;9.07;8.77;;;4.10;99.90;;;;;;5098937;28;20747;-82
2021/12/18 03:59:04;;;;;;;9.30;9.00;;;4.10;99.90;;;;;;5099044;28;20273;-82
2021/12/18 04:01:35;;;;;;;9.03;8.73;;;4.10;99.90;;;;;;5099462;28;20343;-82
2021/12/18 04:04:03;;;;;;;9.40;9.10;;;4.10;99.90;;;;;;5100039;28;20229;-83
2021/12/18 04:06:37;;;;;;;9.50;9.20;;;4.10;99.90;;;;;;5099119;28;20704;-82
2021/12/18 04:09:05;;;;;;;9.30;9.00;;;4.10;99.90;;;;;;5099509;28;20705;-82
2021/12/18 04:11:32;;;;;;;9.30;9.00;;;4.10;99.90;;;;;;5099237;28;20278;-81
2021/12/18 04:14:02;;;;;;;9.27;8.97;;;4.10;99.90;;;;;;5099770;28;20267;-82
2021/12/18 04:16:35;;;;;;;9.73;9.43;;;4.10;99.90;;;;;;5102672;28;20720;-82
2021/12/18 04:19:05;;;;;;;9.20;8.90;;;4.10;99.90;;;;;;5101813;28;20226;-81
2021/12/18 04:21:34;;;;;;;9.20;8.90;;;4.10;99.90;;;;;;5101960;28;20229;-82
2021/12/18 04:24:04;;;;;;;9.10;8.80;;;4.10;99.90;;;;;;5099721;28;20384;-82
2021/12/18 04:26:32;;;;;;;9.20;8.90;;;4.10;99.90;;;;;;5097313;28;20288;-82
2021/12/18 04:29:01;;;;;;;9.10;8.80;;;4.10;99.90;;;;;;5099304;28;20225;-82
2021/12/18 04:31:30;;;;;;;9.57;9.27;;;4.10;99.90;;;;;;5098985;28;20239;-82
2021/12/18 04:33:59;;;;;;;9.30;9.00;;;4.20;99.90;;;;;;5099081;28;20291;-83
2021/12/18 04:36:27;;;;;;;9.20;8.90;;;4.20;99.90;;;;;;5098722;28;20294;-82
2021/12/18 04:38:54;;;;;;;9.40;9.10;;;4.20;99.90;;;;;;5098839;28;20235;-82
2021/12/18 04:41:24;;;;;;;8.90;8.70;;;4.10;99.90;;;;;;5099533;28;20366;-82
2021/12/18 04:43:53;;;;;;;9.10;8.80;;;4.20;99.90;;;;;;5099536;28;20286;-82
2021/12/18 04:46:21;;;;;;;8.93;8.70;;;4.20;99.90;;;;;;5098584;28;20279;-82
2021/12/18 04:48:49;;;;;;;9.17;8.87;;;4.20;99.90;;;;;;5099256;28;20226;-82
2021/12/18 04:51:18;;;;;;;9.27;8.97;;;4.30;99.90;;;;;;5099222;28;20233;-82
2021/12/18 04:53:46;;;;;;;9.13;8.83;;;4.30;99.90;;;;;;5098994;28;20237;-83
2021/12/18 04:56:13;;;;;;;9.17;8.87;;;4.30;99.90;;;;;;5099019;28;20233;-82
2021/12/18 04:58:41;;;;;;;9.30;9.00;;;4.30;99.90;;;;;;5099169;28;20225;-82
2021/12/18 05:01:09;;;;;;;9.60;9.30;;;4.20;99.90;;;;;;5099837;28;20225;-82
2021/12/18 05:03:39;;;;;;;9.60;9.30;;;4.20;99.90;;;;;;5099703;28;20237;-82
2021/12/18 05:06:07;;;;;;;9.47;9.17;;;4.20;99.90;;;;;;5099003;28;20233;-82
2021/12/18 05:08:36;;;;;;;9.33;9.03;;;4.20;99.90;;;;;;5099866;28;20225;-82
2021/12/18 05:11:04;;;;;;;9.20;8.90;;;4.20;99.90;;;;;;5099630;28;20275;-82
2021/12/18 05:13:31;;;;;;;9.23;8.93;;;4.10;99.90;;;;;;5099475;28;20263;-82
2021/12/18 05:15:59;;;;;;;9.40;9.10;;;4.10;99.90;;;;;;5099021;28;20237;-82
2021/12/18 05:18:27;;;;;;;9.60;9.30;;;4.10;99.90;;;;;;5099185;28;20240;-82
2021/12/18 05:20:55;;;;;;;9.40;9.10;;;4.20;99.90;;;;;;5099190;28;20240;-83
2021/12/18 05:23:22;;;;;;;9.57;9.27;;;4.10;99.90;;;;;;5099735;28;20233;-82
2021/12/18 05:25:51;;;;;;;9.60;9.30;;;4.10;99.90;;;;;;5101687;28;20232;-82
2021/12/18 05:28:19;;;;;;;9.70;9.40;;;4.10;99.90;;;;;;5101637;28;20279;-82
2021/12/18 05:30:47;;;;;;;9.40;9.10;;;4.10;99.90;;;;;;5102491;28;20229;-82
2021/12/18 05:33:15;;;;;;;9.87;9.57;;;4.10;99.90;;;;;;5105456;28;20226;-82
2021/12/18 05:35:42;;;;;;;9.60;9.30;;;4.10;99.90;;;;;;5104513;28;20241;-82
2021/12/18 05:38:10;;;;;;;9.40;9.10;;;4.10;99.90;;;;;;5104643;28;21004;-82
2021/12/18 05:40:39;;;;;;;9.30;9.00;;;4.10;99.90;;;;;;5105150;28;20233;-82
2021/12/18 05:43:10;;;;;;;9.30;9.00;;;4.20;99.90;;;;;;5107281;28;20233;-82
2021/12/18 05:45:38;;;;;;;9.60;9.30;;;4.20;99.90;;;;;;5105029;28;20255;-82
2021/12/18 05:48:07;;;;;;;9.40;9.10;;;4.20;99.90;;;;;;5105039;28;20234;-82
2021/12/18 05:50:35;;;;;;;9.47;9.17;;;4.20;99.90;;;;;;5106855;28;20233;-80
2021/12/18 05:53:03;;;;;;;9.50;9.20;;;4.30;99.90;;;;;;5116997;27;20226;-83
2021/12/18 05:55:31;;;;;;;9.40;9.10;;;4.30;99.90;;;;;;5118540;27;20235;-82
2021/12/18 05:57:59;;;;;;;9.60;9.30;;;4.30;99.90;;;;;;5109838;28;20294;-82
2021/12/18 06:00:28;;;;;;;9.60;9.30;;;4.30;99.90;;;;;;5121131;28;20221;-81
2021/12/18 06:02:56;;;;;;;9.60;9.30;;;4.30;99.90;;;;;;5122137;28;20225;-82
2021/12/18 06:05:24;;;;;;;9.70;9.40;;;4.20;99.90;;;;;;5121235;27;20255;-82
2021/12/18 06:07:57;;;;;;;9.60;9.30;;;4.20;99.90;;;;;;5106330;28;20248;-82
2021/12/18 06:10:29;;;;;;;9.67;9.37;;;4.20;99.90;;;;;;5103655;28;20332;-82
2021/12/18 06:12:59;;;;;;;9.67;9.37;;;4.20;99.90;;;;;;5102280;28;20230;-82
2021/12/18 06:15:29;;;;;;;9.73;9.43;;;4.20;99.90;;;;;;5102211;28;20291;-82
2021/12/18 06:17:57;;;;;;;9.87;9.57;;;4.20;99.90;;;;;;5101722;28;21027;-82
2021/12/18 06:20:25;;;;;;;9.87;9.57;;;4.20;99.90;;;;;;5107048;28;20259;-83
2021/12/18 06:22:53;;;;;;;10.13;9.83;;;4.20;99.90;;;;;;5102387;28;20229;-82
2021/12/18 06:25:21;;;;;;;9.97;9.67;;;4.20;99.90;;;;;;5101308;28;20287;-82
2021/12/18 06:27:49;;;;;;;9.90;9.60;;;4.20;99.90;;;;;;5100725;28;20226;-82
2021/12/18 06:30:18;;;;;;;9.60;9.30;;;4.20;99.90;;;;;;5102778;28;20233;-83
2021/12/18 06:32:48;;;;;;;9.80;9.50;;;4.20;99.90;;;;;;5101128;28;20229;-82
2021/12/18 06:35:16;;;;;;;9.57;9.27;;;4.20;99.90;;;;;;5100781;28;20241;-82
2021/12/18 06:37:43;;;;;;;9.70;9.40;;;4.10;99.90;;;;;;5101185;28;20225;-82
2021/12/18 06:40:12;;;;;;;9.90;9.60;;;4.10;99.90;;;;;;5102003;28;20229;-82
2021/12/18 06:42:42;;;;;;;9.70;9.40;;;4.10;99.90;;;;;;5100162;28;20689;-82
2021/12/18 06:45:12;;;;;;;9.70;9.40;;;4.10;99.90;;;;;;5099195;28;20241;-82
2021/12/18 06:47:41;;;;;;;9.70;9.40;;;4.00;99.90;;;;;;5100721;28;20241;-82
2021/12/18 06:50:11;;;;;;;9.57;9.27;;;4.00;99.90;;;;;;5100840;28;20241;-82
2021/12/18 06:52:38;;;;;;;9.67;9.37;;;4.00;99.90;;;;;;5110667;28;20229;-82
2021/12/18 06:55:07;;;;;;;9.93;9.63;;;4.00;99.90;;;;;;5107287;28;20241;-82
2021/12/18 06:57:35;;;;;;;9.80;9.50;;;4.00;99.90;;;;;;5110396;28;20254;-81
2021/12/18 07:00:04;;;;;;;10.07;9.77;;;4.10;99.90;;;;;;5117558;28;20238;-81
2021/12/18 07:02:32;;;;;;;9.90;9.60;;;4.00;99.90;;;;;;5114032;28;20229;-81
2021/12/18 07:05:01;;;;;;;10.17;9.87;;;4.00;99.90;;;;;;5113493;28;20229;-82
2021/12/18 07:07:30;;;;;;;10.10;9.80;;;4.00;99.90;;;;;;5111761;28;20242;-81
2021/12/18 07:09:58;;;;;;;10.13;9.83;;;4.00;99.90;;;;;;5107860;28;20231;-82
2021/12/18 07:12:26;;;;;;;10.23;9.93;;;4.10;99.90;;;;;;5105107;28;20230;-82
2021/12/18 07:14:53;;;;;;;10.30;10.00;;;4.10;99.90;;;;;;5116808;27;20245;-83
2021/12/18 07:17:21;;;;;;;10.27;9.97;;;4.10;99.90;;;;;;5105923;28;21105;-82
2021/12/18 07:19:49;;;;;;;10.13;9.83;;;4.00;99.90;;;;;;5109653;28;20243;-82
2021/12/18 07:22:17;;;;;;;9.93;9.63;;;4.00;99.90;;;;;;5106055;28;20229;-83
2021/12/18 07:24:47;;;;;;;9.70;9.40;;;3.90;99.90;;;;;;5100665;28;20229;-82
2021/12/18 07:27:14;;;;;;;10.13;9.83;;;4.00;99.90;;;;;;5101231;28;20276;-83
2021/12/18 07:29:42;;;;;;;10.30;10.00;;;4.00;99.90;;;;;;5102428;28;20238;-82
2021/12/18 07:32:10;;;;;;;10.30;10.00;;;3.80;99.90;;;;;;5100829;28;20229;-82
2021/12/18 07:34:38;;;;;;;10.13;9.83;;;3.80;99.90;;;;;;5101825;28;20237;-82
2021/12/18 07:37:06;;;;;;;10.30;10.00;;;3.80;99.90;;;;;;5100802;28;20241;-82
2021/12/18 07:39:33;;;;;;;10.40;10.10;;;3.80;99.90;;;;;;5102036;28;20296;-81
2021/12/18 07:42:03;;;;;;;10.10;9.80;;;3.80;99.90;;;;;;5101878;28;20229;-83
2021/12/18 07:44:31;;;;;;;10.10;9.80;;;3.80;99.90;;;;;;5102245;28;20244;-82
2021/12/18 07:46:59;;;;;;;10.30;10.00;;;3.80;99.90;;;;;;5101293;28;20233;-83
2021/12/18 07:49:27;;;;;;;10.80;10.50;;;3.80;99.90;;;;;;5101612;28;20510;-80
2021/12/18 07:52:02;;;;;;;10.30;10.00;;;3.90;99.90;;;;;;5102256;28;20228;-81
2021/12/18 07:54:30;;;;;;;10.20;9.90;;;4.00;99.90;;;;;;5101536;28;20228;-80
2021/12/18 07:56:57;;;;;;;10.03;9.73;;;4.10;99.90;;;;;;5102662;28;20225;-80
2021/12/18 07:59:27;;;;;;;10.07;9.77;;;4.20;99.90;;;;;;5101612;28;20230;-80
2021/12/18 08:01:54;;;;;;;10.10;9.80;;;4.20;99.90;;;;;;5101481;28;20226;-80
2021/12/18 08:04:22;;;;;;;10.03;9.73;;;4.30;99.90;;;;;;5101299;28;20255;-80
2021/12/18 08:06:50;;;;;;;9.87;9.57;;;4.20;99.90;;;;;;5102200;28;20230;-81
2021/12/18 08:09:18;;;;;;;10.10;9.80;;;4.20;99.90;;;;;;5101926;28;20287;-81
2021/12/18 08:11:46;;;;;;;9.80;9.50;;;4.20;99.90;;;;;;5101832;28;20267;-81
2021/12/18 08:14:13;;;;;;;9.80;9.50;;;4.20;99.90;;;;;;5110031;28;20275;-82
2021/12/18 08:16:43;;;;;;;9.80;9.50;;;4.10;99.90;;;;;;5108921;28;20299;-81
2021/12/18 08:19:11;;;;;;;9.60;9.30;;;4.10;99.90;;;;;;5112629;28;20237;-84
2021/12/18 08:21:38;;;;;;;10.03;9.73;;;4.10;99.90;;;;;;5105226;28;20303;-83
2021/12/18 08:24:07;;;;;;;9.80;9.50;;;4.10;99.90;;;;;;5103770;28;20233;-83
2021/12/18 08:26:34;;;;;;;9.90;9.60;;;4.10;99.90;;;;;;5101177;28;20221;-82
2021/12/18 08:29:02;;;;;;;9.83;9.53;;;4.20;99.90;;;;;;5101563;28;20225;-81
2021/12/18 08:31:30;;;;;;;9.60;9.30;;;4.20;99.90;;;;;;5101845;28;20237;-82
2021/12/18 08:34:00;;;;;;;10.03;9.73;;;4.30;99.90;;;;;;5100764;28;20229;-82
2021/12/18 08:36:28;;;;;;;9.63;9.33;;;4.20;99.90;;;;;;5110970;27;20230;-82
2021/12/18 08:38:56;;;;;;;9.70;9.40;;;4.20;99.90;;;;;;5117265;27;20375;-82
2021/12/18 08:41:24;;;;;;;9.60;9.30;;;4.30;99.90;;;;;;5104714;28;20231;-83
2021/12/18 08:43:51;;;;;;;9.73;9.43;;;4.30;99.90;;;;;;5109495;28;20230;-81
2021/12/18 08:49:23;;;;;;;10.30;10.00;;;4.20;99.90;;;;;;5098075;28;20332;-84
2021/12/18 08:51:52;;;;;;;9.87;9.57;;;4.30;99.90;;;;;;5101848;28;20237;-86
2021/12/18 08:54:19;;;;;;;9.60;9.30;;;4.40;99.90;;;;;;5102523;28;20230;-83
2021/12/18 08:56:47;;;;;;;9.77;9.47;;;4.40;99.90;;;;;;5103880;28;20222;-84
2021/12/18 08:59:16;;;;;;;9.80;9.50;;;4.40;99.90;;;;;;5104779;28;20245;-83
2021/12/18 09:01:44;;;;;;;9.63;9.33;;;4.40;99.90;;;;;;5102684;28;20296;-83
2021/12/18 09:04:12;;;;;;;10.00;9.70;;;4.40;99.90;;;;;;5109969;28;20234;-83
2021/12/18 09:06:41;;;;;;;9.80;9.50;;;4.50;99.90;;;;;;5108487;28;20224;-83
2021/12/18 09:09:09;;;;;;;10.00;9.70;;;4.50;99.90;;;;;;5107783;28;20222;-83
2021/12/18 09:11:37;;;;;;;9.70;9.40;;;4.40;99.90;;;;;;5106729;28;20237;-83
2021/12/18 09:14:05;;;;;;;9.67;9.37;;;4.40;99.90;;;;;;5102896;28;20627;-85
2021/12/18 09:16:33;;;;;;;9.90;9.60;;;4.40;99.90;;;;;;5103666;28;20288;-83
2021/12/18 09:19:01;;;;;;;9.80;9.50;;;4.30;99.90;;;;;;5103036;28;20244;-82
2021/12/18 09:21:32;;;;;;;9.70;9.40;;;4.30;99.90;;;;;;5101601;28;20229;-83
2021/12/18 09:24:03;;;;;;;9.53;9.23;;;4.30;99.90;;;;;;5111775;28;20221;-83
2021/12/18 09:26:31;;;;;;;9.77;9.47;;;4.30;99.90;;;;;;5102937;28;20244;-83
2021/12/18 09:29:01;;;;;;;9.33;9.03;;;4.30;99.90;;;;;;5103982;28;20221;-83
2021/12/18 09:31:30;;;;;;;9.60;9.30;;;4.30;99.90;;;;;;5098347;28;20251;-83
2021/12/18 09:33:58;;;;;;;9.70;9.40;;;4.30;99.90;;;;;;5103239;28;20229;-84
2021/12/18 09:36:26;;;;;;;9.70;9.40;;;4.20;99.90;;;;;;5103935;28;20217;-84
2021/12/18 09:38:55;;;;;;;9.57;9.27;;;4.20;99.90;;;;;;5103557;28;20267;-84
2021/12/18 09:41:34;;;;;;;9.43;9.13;;;4.30;99.90;;;;;;5102521;28;20233;-84
2021/12/18 09:44:02;;;;;;;9.80;9.50;;;4.30;99.90;;;;;;5083842;28;20226;-82
2021/12/18 09:46:33;;;;;;;9.53;9.23;;;4.40;99.90;;;;;;5087017;28;20356;-82
2021/12/18 09:49:03;;;;;;;9.40;9.10;;;4.40;99.90;;;;;;5096136;28;20234;-82
2021/12/18 09:51:35;;;;;;;9.40;9.10;;;4.40;99.90;;;;;;5105045;28;20289;-82
2021/12/18 09:54:03;;;;;;;9.70;9.40;;;4.40;99.90;;;;;;5102690;27;20235;-83
2021/12/18 09:56:33;;;;;;;9.53;9.23;;;4.40;99.90;;;;;;5101795;28;20221;-83
2021/12/18 09:59:00;;;;;;;9.47;9.17;;;4.50;99.90;;;;;;5108928;28;20229;-83
2021/12/18 10:01:28;;;;;;;9.40;9.10;;;4.50;99.90;;;;;;5101601;28;20233;-82
2021/12/18 10:03:58;;;;;;;9.60;9.30;;;4.60;99.90;;;;;;5106080;28;20233;-81
2021/12/18 10:06:39;;;;;;;9.90;9.60;;;4.60;99.90;;;;;;5103959;28;20287;-82
2021/12/18 10:09:11;;;;;;;9.80;9.50;;;4.60;99.90;;;;;;5103494;28;20226;-83
2021/12/18 10:11:50;;;;;;;9.83;9.53;;;4.60;99.90;;;;;;5104062;28;20225;-82
2021/12/18 10:14:21;;;;;;;9.83;9.53;;;4.60;99.90;;;;;;5105719;28;20237;-83
2021/12/18 10:17:03;;;;;;;9.43;9.13;;;4.60;99.90;;;;;;5103703;28;20221;-85
2021/12/18 10:19:34;;;;;;;9.30;9.00;;;4.60;99.90;;;;;;5105998;28;20244;-84
2021/12/18 10:22:05;;;;;;;9.40;9.10;;;4.70;99.90;;;;;;5105394;28;20236;-84
2021/12/18 10:24:35;;;;;;;9.27;8.97;;;4.70;99.90;;;;;;5106083;28;20233;-83
2021/12/18 10:27:18;;;;;;;9.30;9.00;;;4.80;99.90;;;;;;5105252;28;20325;-83
2021/12/18 10:29:47;;;;;;;9.20;8.90;;;4.80;99.90;;;;;;5106507;28;20221;-83
2021/12/18 10:32:17;;;;;;;9.27;8.97;;;4.80;99.90;;;;;;5104128;28;20309;-83
2021/12/18 10:34:56;;;;;;;9.10;8.80;;;4.80;99.90;;;;;;5103674;28;20267;-82
2021/12/18 10:37:26;;;;;;;9.30;9.00;;;4.70;99.90;;;;;;5105134;28;20226;-83
2021/12/18 10:40:06;;;;;;;9.60;9.30;;;4.50;99.90;;;;;;5106325;28;20241;-83
2021/12/18 10:42:39;;;;;;;9.23;8.93;;;4.50;99.90;;;;;;5104166;28;20233;-82
2021/12/18 10:45:13;;;;;;;9.30;9.00;;;4.50;99.90;;;;;;5082687;28;20237;-80
2021/12/18 10:47:55;;;;;;;9.17;8.87;;;4.70;99.90;;;;;;5083631;28;20287;-80
2021/12/18 10:50:33;;;;;;;9.30;9.00;;;4.80;99.90;;;;;;5083566;28;20230;-80
2021/12/18 10:53:06;;;;;;;9.63;9.33;;;4.90;99.90;;;;;;5082323;28;20288;-81
2021/12/18 10:55:37;;;;;;;9.50;9.20;;;4.90;99.90;;;;;;5089531;28;20237;-81
2021/12/18 10:58:09;;;;;;;9.80;9.50;;;4.80;99.90;;;;;;5100970;28;20230;-81
2021/12/18 11:00:48;;;;;;;9.37;9.07;;;4.80;99.90;;;;;;5103936;28;20252;-81
2021/12/18 11:03:32;;;;;;;9.50;9.20;;;4.70;99.90;;;;;;5102473;28;20229;-82
2021/12/18 11:06:19;;;;;;;9.60;9.30;;;4.60;99.90;;;;;;5101306;28;20237;-84
2021/12/18 11:09:08;;;;;;;9.40;9.10;;;4.70;99.90;;;;;;5101114;28;20313;-82
2021/12/18 11:14:45;;;;;;;9.20;8.90;;;4.70;99.90;;;;;;5102706;28;20229;-83
2021/12/18 11:17:16;;;;;;;9.10;8.80;;;4.70;99.90;;;;;;5103018;28;20225;-83
2021/12/18 11:19:44;;;;;;;9.30;9.00;;;4.70;99.90;;;;;;5103409;28;20227;-85
2021/12/18 11:22:15;;;;;;;9.27;8.97;;;4.70;99.90;;;;;;5102118;28;20260;-85
2021/12/18 11:24:51;;;;;;;9.27;8.97;;;4.70;99.90;;;;;;5105676;28;20228;-84
2021/12/18 11:27:21;;;;;;;9.50;9.20;;;4.70;99.90;;;;;;5119692;28;20229;-84
2021/12/18 11:29:56;;;;;;;9.07;8.77;;;4.70;99.90;;;;;;5109580;28;20221;-83
2021/12/18 11:32:27;;;;;;;8.80;8.60;;;4.80;99.90;;;;;;5103735;28;20282;-84
2021/12/18 11:34:59;;;;;;;8.90;8.70;;;4.80;99.90;;;;;;5102489;28;20336;-83
2021/12/18 11:37:28;;;;;;;8.90;8.70;;;4.90;99.90;;;;;;5102862;28;20328;-84
2021/12/18 11:40:04;;;;;;;9.20;8.90;;;4.90;99.90;;;;;;5102944;28;20236;-83
2021/12/18 11:42:35;;;;;;;9.70;9.40;;;5.00;99.90;;;;;;5102864;28;20237;-83
2021/12/18 11:45:07;;;;;;;9.17;8.87;;;4.90;99.90;;;;;;5103477;28;20242;-84
2021/12/18 11:47:37;;;;;;;9.20;8.90;;;4.90;99.90;;;;;;5105258;28;20235;-83
2021/12/18 11:50:21;;;;;;;9.30;9.00;;;4.90;99.90;;;;;;5104695;28;20229;-84
2021/12/18 11:53:02;;;;;;;9.30;9.00;;;4.90;99.90;;;;;;5104783;28;20241;-83
2021/12/18 11:55:34;;;;;;;9.27;8.97;;;4.90;99.90;;;;;;5104427;28;20233;-83
2021/12/18 11:58:03;;;;;;;9.00;8.70;;;4.90;99.90;;;;;;5103233;28;20236;-83
2021/12/18 12:00:44;;;;;;;9.20;8.90;;;4.80;99.90;;;;;;5103186;28;20222;-84
2021/12/18 12:03:26;;;;;;;8.90;8.70;;;4.90;99.90;;;;;;5104078;28;20225;-84
2021/12/18 12:05:54;;;;;;;8.90;8.70;;;4.90;99.90;;;;;;5103112;28;20233;-84
2021/12/18 12:08:34;;;;;;;9.20;8.90;;;4.80;99.90;;;;;;5101991;28;20275;-84
2021/12/18 12:11:21;;;;;;;9.30;9.00;;;4.80;99.90;;;;;;5102194;28;20226;-82
2021/12/18 12:14:04;;;;;;;8.97;8.77;;;4.80;99.90;;;;;;5102474;28;20237;-84
2021/12/18 12:17:10;;;;;;;9.20;8.90;;;4.80;99.90;;;;;;5101605;28;20287;-84
2021/12/18 12:19:54;;;;;;;9.13;8.83;;;4.90;99.90;;;;;;5082330;28;20241;-84
2021/12/18 12:22:41;;;;;;;9.10;8.80;;;4.90;99.90;;;;;;5101668;28;20240;-84
2021/12/18 12:25:14;;;;;;;8.90;8.70;;;4.90;99.90;;;;;;5101401;28;20304;-83
2021/12/18 12:27:44;;;;;;;9.00;8.70;;;4.90;99.90;;;;;;5101752;28;20233;-83
2021/12/18 12:30:30;;;;;;;9.10;8.80;;;4.90;99.90;;;;;;5101401;28;20233;-84
2021/12/18 12:33:04;;;;;;;8.70;8.50;;;4.80;99.90;;;;;;5106509;28;20206;-84
2021/12/18 12:35:32;;;;;;;9.30;9.00;;;4.80;99.90;;;;;;5118284;28;20234;-84
2021/12/18 12:38:00;;;;;;;9.20;8.90;;;4.70;99.90;;;;;;5118367;28;20232;-84
2021/12/18 12:40:35;;;;;;;9.10;8.80;;;4.70;99.90;;;;;;5112999;28;21153;-84
2021/12/18 12:43:15;;;;;;;9.50;9.20;;;4.60;99.90;;;;;;5103452;28;20209;-83
2021/12/18 12:45:47;;;;;;;9.17;8.87;;;4.60;99.90;;;;;;5102862;28;20275;-84
2021/12/18 12:48:17;;;;;;;9.33;9.03;;;4.60;99.90;;;;;;5100899;28;20256;-83
2021/12/18 12:50:55;;;;;;;9.40;9.10;;;4.60;99.90;;;;;;5100515;28;20265;-84
2021/12/18 12:53:23;;;;;;;9.23;8.93;;;4.70;99.90;;;;;;5100023;28;20233;-84
2021/12/18 12:55:52;;;;;;;9.50;9.20;;;4.70;99.90;;;;;;5099393;28;20233;-84
2021/12/18 12:58:24;;;;;;;9.23;8.93;;;4.70;99.90;;;;;;5099975;28;20240;-84
2021/12/18 13:00:59;;;;;;;9.20;8.90;;;4.70;99.90;;;;;;5100644;28;20225;-85
2021/12/18 13:03:37;;;;;;;9.10;8.80;;;4.70;99.90;;;;;;5102035;28;20221;-84
2021/12/18 13:06:16;;;;;;;9.00;8.70;;;4.70;99.90;;;;;;5101271;28;20320;-85
2021/12/18 13:08:47;;;;;;;9.00;8.70;;;4.70;99.90;;;;;;5101366;28;20233;-84
2021/12/18 13:11:24;;;;;;;8.70;8.50;;;4.60;99.90;;;;;;5103167;28;20291;-85
2021/12/18 13:13:54;;;;;;;9.10;8.80;;;4.60;99.90;;;;;;5100343;28;20293;-84
2021/12/18 13:16:24;;;;;;;8.80;8.60;;;4.70;99.90;;;;;;5099390;28;20225;-85
2021/12/18 13:18:57;;;;;;;9.20;8.90;;;4.60;99.90;;;;;;5100332;28;20232;-84
2021/12/18 13:21:28;;;;;;;9.20;8.90;;;4.60;99.90;;;;;;5100252;28;20247;-83
2021/12/18 13:23:59;;;;;;;9.10;8.80;;;4.60;99.90;;;;;;5103961;28;20236;-85
2021/12/18 13:26:32;;;;;;;8.97;8.70;;;4.60;99.90;;;;;;5105242;28;20256;-84
2021/12/18 13:29:06;;;;;;;9.23;8.93;;;4.60;99.90;;;;;;5101925;28;20233;-83
2021/12/18 13:31:39;;;;;;;9.30;9.00;;;4.60;99.90;;;;;;5101115;28;20233;-83
2021/12/18 13:34:12;;;;;;;9.20;8.90;;;4.50;99.90;;;;;;5098381;28;20300;-83
2021/12/18 13:36:44;;;;;;;9.20;8.90;;;4.30;99.90;;;;;;5098772;28;20233;-84
2021/12/18 13:39:15;;;;;;;9.40;9.10;;;4.30;99.90;;;;;;5098969;28;20244;-82
2021/12/18 13:41:59;;;;;;;9.17;8.87;;;4.40;99.90;;;;;;5098746;28;20221;-82
2021/12/18 13:44:44;;;;;;;9.27;8.97;;;4.40;99.90;;;;;;5098803;28;20239;-83
2021/12/18 13:47:23;;;;;;;9.10;8.80;;;4.30;99.90;;;;;;5099403;28;20240;-83
2021/12/18 13:50:07;;;;;;;9.30;9.00;;;4.30;99.90;;;;;;5100782;28;20229;-83